createdAt,value
2019-01-19T00:02:14.743Z,6.15
2019-01-19T00:04:55.250Z,6.35
2019-01-19T00:07:38.496Z,6.65
2019-01-19T00:10:32.833Z,5.67
2019-01-19T00:13:07.112Z,6.12
2019-01-19T00:15:41.189Z,6.67
2019-01-19T00:18:30.629Z,5.95
2019-01-19T00:21:16.931Z,6.05
2019-01-19T00:24:06.084Z,6.05
2019-01-19T00:26:49.392Z,5.83
2019-01-19T00:29:45.642Z,6.00
2019-01-19T00:32:17.179Z,5.55
2019-01-19T00:34:48.696Z,5.92
2019-01-19T00:37:20.247Z,5.67
2019-01-19T00:40:00.415Z,5.75
2019-01-19T00:42:43.728Z,5.15
2019-01-19T00:45:23.755Z,5.42
2019-01-19T00:48:16.257Z,5.50
2019-01-19T00:50:53.579Z,5.80
2019-01-19T00:53:34.080Z,5.90
2019-01-19T00:56:20.584Z,5.55
2019-01-19T00:58:55.130Z,5.62
2019-01-19T01:01:41.218Z,6.58
2019-01-19T01:04:22.248Z,6.25
2019-01-19T01:06:56.392Z,5.83
2019-01-19T01:09:48.942Z,6.22
2019-01-19T01:12:49.642Z,5.85
2019-01-19T01:15:40.715Z,5.75
2019-01-19T01:18:30.529Z,5.60
2019-01-19T01:21:10.864Z,5.97
2019-01-19T01:24:00.127Z,6.08
2019-01-19T01:26:52.767Z,6.25
2019-01-19T01:29:40.849Z,6.95
2019-01-19T01:32:21.442Z,7.15
2019-01-19T01:35:12.673Z,6.90
2019-01-19T01:37:44.221Z,6.72
2019-01-19T01:40:32.794Z,6.28
2019-01-19T01:43:04.413Z,6.37
2019-01-19T01:45:38.680Z,6.72
2019-01-19T01:48:19.016Z,6.40
2019-01-19T01:51:11.622Z,6.30
2019-01-19T01:54:02.628Z,5.95
2019-01-19T01:56:31.139Z,7.40
2019-01-19T01:59:05.581Z,6.83
2019-01-19T02:01:37.143Z,6.60
2019-01-19T02:04:28.205Z,6.58
2019-01-19T02:07:31.291Z,6.25
2019-01-19T02:10:14.491Z,6.50
2019-01-19T02:13:05.477Z,6.22
2019-01-19T02:15:37.184Z,6.40
2019-01-19T02:18:27.919Z,6.33
2019-01-19T02:21:02.420Z,5.92
2019-01-19T02:23:52.100Z,6.90
2019-01-19T02:26:32.478Z,6.70
2019-01-19T02:29:06.716Z,6.58
2019-01-19T02:31:43.987Z,7.17
2019-01-19T02:34:33.691Z,6.60
2019-01-19T02:37:25.867Z,6.30
2019-01-19T02:40:00.008Z,7.15
2019-01-19T02:42:43.395Z,6.72
2019-01-19T02:45:33.192Z,6.95
2019-01-19T02:48:07.581Z,6.85
2019-01-19T02:50:41.703Z,7.42
2019-01-19T02:53:22.265Z,6.22
2019-01-19T02:55:56.861Z,7.03
2019-01-19T02:58:52.888Z,7.65
2019-01-19T03:01:35.859Z,6.90
2019-01-19T03:04:28.553Z,7.08
2019-01-19T03:07:03.030Z,6.95
2019-01-19T03:09:40.372Z,7.60
2019-01-19T03:12:31.269Z,7.03
2019-01-19T03:15:38.881Z,6.85
2019-01-19T03:18:13.383Z,7.60
2019-01-19T03:20:45.004Z,7.30
2019-01-19T03:23:28.788Z,7.15
2019-01-19T03:26:15.203Z,6.55
2019-01-19T03:28:52.743Z,7.22
2019-01-19T03:31:40.699Z,7.47
2019-01-19T03:34:30.956Z,7.28
2019-01-19T03:37:11.905Z,6.87
2019-01-19T03:40:18.528Z,8.15
2019-01-19T03:42:56.429Z,7.87
2019-01-19T03:45:50.921Z,6.72
2019-01-19T03:48:38.977Z,7.30
2019-01-19T03:51:33.553Z,7.25
2019-01-19T03:54:08.056Z,7.60
2019-01-19T03:56:57.679Z,8.40
2019-01-19T03:59:44.247Z,8.25
2019-01-19T04:02:27.993Z,8.00
2019-01-19T04:05:11.192Z,8.03
2019-01-19T04:07:51.594Z,7.72
2019-01-19T04:10:23.250Z,8.03
2019-01-19T04:13:03.685Z,7.67
2019-01-19T04:15:47.623Z,8.15
2019-01-19T04:18:40.032Z,8.18
2019-01-19T04:21:29.585Z,8.20
2019-01-19T04:24:01.334Z,8.40
2019-01-19T04:26:32.862Z,9.40
2019-01-19T04:29:01.581Z,8.83
2019-01-19T04:31:30.191Z,8.28
2019-01-19T04:33:59.362Z,8.85
2019-01-19T04:36:28.720Z,8.48
2019-01-19T04:38:57.785Z,8.65
2019-01-19T04:41:26.312Z,9.23
2019-01-19T04:43:54.889Z,8.65
2019-01-19T04:46:23.561Z,9.70
2019-01-19T04:48:52.555Z,9.35
2019-01-19T04:51:21.126Z,8.68
2019-01-19T04:53:52.776Z,8.35
2019-01-19T04:56:21.477Z,8.10
2019-01-19T04:58:50.001Z,8.40
2019-01-19T05:01:18.570Z,8.65
2019-01-19T05:03:47.034Z,9.30
2019-01-19T05:06:15.468Z,8.43
2019-01-19T05:08:43.933Z,8.55
2019-01-19T05:11:12.493Z,9.58
2019-01-19T05:13:40.961Z,7.62
2019-01-19T05:16:09.412Z,8.70
2019-01-19T05:18:37.986Z,9.93
2019-01-19T05:21:06.958Z,8.43
2019-01-19T05:23:35.772Z,9.23
2019-01-19T05:26:04.303Z,9.28
2019-01-19T05:28:32.748Z,9.20
2019-01-19T05:31:01.228Z,8.93
2019-01-19T05:33:29.681Z,9.20
2019-01-19T05:35:58.137Z,9.40
2019-01-19T05:38:26.603Z,9.73
2019-01-19T05:40:55.080Z,9.75
2019-01-19T05:43:23.524Z,9.03
2019-01-19T05:45:52.009Z,9.53
2019-01-19T05:48:20.461Z,10.38
2019-01-19T05:50:49.005Z,9.68
2019-01-19T05:53:17.444Z,8.45
2019-01-19T05:55:45.904Z,8.15
2019-01-19T05:58:14.348Z,8.90
2019-01-19T06:00:42.841Z,9.10
2019-01-19T06:03:11.279Z,9.50
2019-01-19T06:05:40.924Z,10.00
2019-01-19T06:08:09.433Z,8.80
2019-01-19T06:10:37.905Z,9.53
2019-01-19T06:13:06.448Z,9.15
2019-01-19T06:15:34.958Z,9.30
2019-01-19T06:18:03.515Z,8.35
2019-01-19T06:20:32.000Z,9.53
2019-01-19T06:23:00.460Z,9.38
2019-01-19T06:25:28.899Z,9.18
2019-01-19T06:27:57.368Z,9.70
2019-01-19T06:30:26.046Z,9.48
2019-01-19T06:32:54.521Z,10.10
2019-01-19T06:35:23.068Z,9.20
2019-01-19T06:37:51.685Z,9.38
2019-01-19T06:40:20.308Z,9.85
2019-01-19T06:42:48.911Z,9.20
2019-01-19T06:45:20.158Z,9.63
2019-01-19T06:47:48.688Z,9.98
2019-01-19T06:50:17.859Z,9.88
2019-01-19T06:52:46.567Z,10.00
2019-01-19T06:55:20.775Z,9.60
2019-01-19T06:57:49.211Z,10.10
2019-01-19T07:00:18.545Z,11.68
2019-01-19T07:02:47.129Z,9.80
2019-01-19T07:05:15.583Z,12.15
2019-01-19T07:07:44.110Z,11.10
2019-01-19T07:10:15.359Z,12.20
2019-01-19T07:12:43.884Z,12.82
2019-01-19T07:15:13.596Z,12.58
2019-01-19T07:17:42.044Z,11.55
2019-01-19T07:20:15.963Z,12.82
2019-01-19T07:22:44.476Z,13.03
2019-01-19T07:25:13.384Z,14.50
2019-01-19T07:27:41.900Z,13.70
2019-01-19T07:30:13.085Z,13.75
2019-01-19T07:32:41.529Z,13.35
2019-01-19T07:35:10.055Z,14.35
2019-01-19T07:37:38.569Z,14.15
2019-01-19T07:40:09.867Z,14.58
2019-01-19T07:42:39.365Z,13.22
2019-01-19T07:45:10.055Z,14.85
2019-01-19T07:47:38.948Z,15.55
2019-01-19T07:50:10.437Z,16.37
2019-01-19T07:52:39.027Z,16.23
2019-01-19T07:55:10.435Z,16.25
2019-01-19T07:57:38.946Z,17.15
2019-01-19T08:00:13.304Z,17.50
2019-01-19T08:02:41.960Z,16.93
2019-01-19T08:05:11.183Z,16.23
2019-01-19T08:07:39.769Z,15.93
2019-01-19T08:10:11.231Z,17.27
2019-01-19T08:12:39.867Z,16.00
2019-01-19T08:15:14.189Z,18.27
2019-01-19T08:17:42.798Z,19.65
2019-01-19T08:20:13.378Z,21.17
2019-01-19T08:22:42.096Z,21.93
2019-01-19T08:25:12.176Z,20.57
2019-01-19T08:27:40.780Z,20.48
2019-01-19T08:30:18.299Z,18.10
2019-01-19T08:32:46.943Z,18.07
2019-01-19T08:35:17.294Z,17.62
2019-01-19T08:37:46.299Z,17.40
2019-01-19T08:40:29.392Z,16.57
2019-01-19T08:43:03.262Z,16.60
2019-01-19T08:45:31.779Z,15.83
2019-01-19T08:48:01.101Z,17.67
2019-01-19T08:50:29.548Z,16.95
2019-01-19T08:52:58.016Z,17.40
2019-01-19T08:55:26.551Z,16.60
2019-01-19T08:57:55.002Z,17.82
2019-01-19T09:00:23.526Z,16.55
2019-01-19T09:02:52.000Z,16.05
2019-01-19T09:05:20.529Z,16.40
2019-01-19T09:07:49.024Z,15.50
2019-01-19T09:10:18.728Z,17.45
2019-01-19T09:12:47.245Z,16.80
2019-01-19T09:15:17.949Z,14.93
2019-01-19T09:17:46.481Z,16.37
2019-01-19T09:20:16.784Z,13.90
2019-01-19T09:22:47.108Z,17.35
2019-01-19T09:25:16.230Z,16.50
2019-01-19T09:27:44.772Z,15.28
2019-01-19T09:30:15.999Z,15.45
2019-01-19T09:32:44.940Z,14.95
2019-01-19T09:35:13.664Z,14.60
2019-01-19T09:37:42.266Z,14.58
2019-01-19T09:40:15.618Z,14.85
2019-01-19T09:42:44.706Z,15.00
2019-01-19T09:45:15.428Z,13.00
2019-01-19T09:47:44.624Z,14.35
2019-01-19T09:50:15.627Z,13.58
2019-01-19T09:52:45.265Z,14.68
2019-01-19T09:55:14.147Z,14.73
2019-01-19T09:57:42.926Z,12.78
2019-01-19T10:00:22.962Z,12.45
2019-01-19T10:02:51.424Z,13.13
2019-01-19T10:05:24.880Z,10.98
2019-01-19T10:07:53.712Z,12.37
2019-01-19T10:10:22.253Z,11.57
2019-01-19T10:12:50.862Z,11.60
2019-01-19T10:15:20.655Z,12.70
2019-01-19T10:17:49.258Z,11.38
2019-01-19T10:20:29.245Z,8.95
2019-01-19T10:22:57.796Z,10.80
2019-01-19T10:25:26.674Z,11.40
2019-01-19T10:27:55.888Z,11.78
2019-01-19T10:30:28.462Z,11.80
2019-01-19T10:32:57.083Z,10.63
2019-01-19T10:35:25.604Z,11.38
2019-01-19T10:37:56.459Z,9.35
2019-01-19T10:40:24.902Z,11.25
2019-01-19T10:42:53.521Z,11.03
2019-01-19T10:45:24.414Z,10.28
2019-01-19T10:47:52.880Z,10.58
2019-01-19T10:50:22.449Z,9.50
2019-01-19T10:52:51.157Z,9.25
2019-01-19T10:55:21.348Z,10.23
2019-01-19T10:57:50.241Z,9.05
2019-01-19T11:00:24.307Z,8.70
2019-01-19T11:02:53.211Z,9.43
2019-01-19T11:05:21.880Z,9.15
2019-01-19T11:07:50.652Z,8.43
2019-01-19T11:10:22.230Z,9.13
2019-01-19T11:12:51.185Z,7.57
2019-01-19T11:15:19.992Z,8.53
2019-01-19T11:17:48.578Z,7.40
2019-01-19T11:20:25.723Z,8.45
2019-01-19T11:22:54.784Z,7.80
2019-01-19T11:25:23.478Z,7.47
2019-01-19T11:27:52.012Z,7.70
2019-01-19T11:30:25.817Z,7.87
2019-01-19T11:32:54.517Z,7.87
2019-01-19T11:35:23.372Z,7.40
2019-01-19T11:37:52.013Z,7.60
2019-01-19T11:40:32.476Z,8.37
2019-01-19T11:43:01.006Z,7.87
2019-01-19T11:45:29.664Z,8.80
2019-01-19T11:47:58.128Z,8.80
2019-01-19T11:50:26.677Z,7.87
2019-01-19T11:52:55.127Z,9.20
2019-01-19T11:55:23.590Z,8.63
2019-01-19T11:57:57.770Z,8.17
2019-01-19T12:00:28.547Z,6.80
2019-01-19T12:02:57.124Z,7.93
2019-01-19T12:05:25.651Z,8.57
2019-01-19T12:07:54.344Z,8.60
2019-01-19T12:10:27.517Z,7.67
2019-01-19T12:12:57.490Z,8.23
2019-01-19T12:15:26.682Z,7.43
2019-01-19T12:17:55.225Z,7.27
2019-01-19T12:20:26.739Z,6.83
2019-01-19T12:22:55.510Z,7.20
2019-01-19T12:25:25.295Z,7.10
2019-01-19T12:27:53.987Z,6.70
2019-01-19T12:30:27.762Z,7.20
2019-01-19T12:32:56.277Z,6.47
2019-01-19T12:35:24.805Z,7.20
2019-01-19T12:37:53.616Z,6.67
2019-01-19T12:40:24.278Z,7.00
2019-01-19T12:42:58.279Z,5.60
2019-01-19T12:45:30.037Z,6.70
2019-01-19T12:47:58.558Z,6.60
2019-01-19T12:50:27.851Z,5.90
2019-01-19T12:52:56.437Z,7.00
2019-01-19T12:55:24.959Z,6.30
2019-01-19T12:57:53.400Z,6.70
2019-01-19T13:00:28.938Z,6.43
2019-01-19T13:02:57.835Z,6.30
2019-01-19T13:05:47.500Z,5.67
2019-01-19T13:08:19.339Z,5.27
2019-01-19T13:11:03.182Z,5.40
2019-01-19T13:13:32.284Z,5.27
2019-01-19T13:16:18.520Z,5.73
2019-01-19T13:18:50.051Z,5.63
2019-01-19T13:21:41.161Z,5.77
2019-01-19T13:24:44.622Z,5.57
2019-01-19T13:27:28.380Z,5.63
2019-01-19T13:30:03.124Z,5.30
2019-01-19T13:33:06.416Z,4.97
2019-01-19T13:35:57.477Z,5.30
2019-01-19T13:38:41.881Z,6.10
2019-01-19T13:41:22.812Z,5.27
2019-01-19T13:44:27.681Z,4.80
2019-01-19T13:47:16.565Z,4.80
2019-01-19T13:49:48.088Z,5.43
2019-01-19T13:52:19.668Z,4.93
2019-01-19T13:54:54.067Z,4.77
2019-01-19T13:57:28.292Z,5.00
2019-01-19T14:00:02.612Z,4.63
2019-01-19T14:02:57.084Z,4.83
2019-01-19T14:05:28.616Z,4.80
2019-01-19T14:08:22.722Z,4.63
2019-01-19T14:11:09.477Z,4.70
2019-01-19T14:13:58.868Z,4.90
2019-01-19T14:16:49.809Z,4.77
2019-01-19T14:19:26.815Z,4.83
2019-01-19T14:22:19.300Z,4.80
2019-01-19T14:25:02.887Z,4.97
2019-01-19T14:27:40.322Z,4.63
2019-01-19T14:30:28.106Z,4.83
2019-01-19T14:33:17.842Z,4.97
2019-01-19T14:36:17.751Z,5.13
2019-01-19T14:38:56.855Z,4.47
2019-01-19T14:41:28.249Z,4.87
2019-01-19T14:44:14.540Z,4.33
2019-01-19T14:46:46.108Z,4.37
2019-01-19T14:49:34.977Z,4.83
2019-01-19T14:52:22.914Z,4.93
2019-01-19T14:55:14.030Z,4.40
2019-01-19T14:57:52.198Z,4.67
2019-01-19T15:00:59.208Z,4.83
2019-01-19T15:03:35.181Z,4.67
2019-01-19T15:06:16.076Z,4.67
2019-01-19T15:09:08.513Z,5.33
2019-01-19T15:11:45.878Z,4.60
2019-01-19T15:14:20.580Z,4.77
2019-01-19T15:17:03.865Z,4.03
2019-01-19T15:19:58.331Z,5.00
2019-01-19T15:22:50.736Z,4.13
2019-01-19T15:25:43.504Z,4.60
2019-01-19T15:28:17.694Z,4.57
2019-01-19T15:30:54.744Z,4.83
2019-01-19T15:33:31.939Z,4.20
2019-01-19T15:36:12.520Z,5.33
2019-01-19T15:38:56.105Z,5.00
2019-01-19T15:41:39.716Z,4.60
2019-01-19T15:44:29.486Z,5.00
2019-01-19T15:47:01.013Z,5.10
2019-01-19T15:49:47.403Z,5.57
2019-01-19T15:52:33.805Z,4.93
2019-01-19T15:55:10.883Z,4.97
2019-01-19T15:57:45.036Z,5.67
2019-01-19T16:00:28.409Z,5.10
2019-01-19T16:03:11.253Z,5.53
2019-01-19T16:05:55.062Z,5.93
2019-01-19T16:08:38.391Z,4.97
2019-01-19T16:11:22.024Z,5.95
2019-01-19T16:14:05.720Z,5.22
2019-01-19T16:16:53.802Z,6.05
2019-01-19T16:19:31.238Z,5.62
2019-01-19T16:22:17.979Z,5.87
2019-01-19T16:25:10.776Z,6.35
2019-01-19T16:27:44.932Z,6.40
2019-01-19T16:30:25.611Z,6.75
2019-01-19T16:33:12.400Z,6.70
2019-01-19T16:35:55.948Z,5.40
2019-01-19T16:38:33.232Z,5.42
2019-01-19T16:41:19.736Z,6.83
2019-01-19T16:44:07.726Z,6.45
2019-01-19T16:46:51.088Z,6.37
2019-01-19T16:49:34.423Z,5.25
2019-01-19T16:52:27.198Z,6.28
2019-01-19T16:55:11.063Z,6.25
2019-01-19T16:58:00.705Z,6.30
2019-01-19T17:00:50.260Z,6.15
2019-01-19T17:03:33.997Z,6.35
2019-01-19T17:06:17.835Z,6.40
2019-01-19T17:08:58.352Z,6.67
2019-01-19T17:11:57.341Z,6.55
2019-01-19T17:14:49.772Z,6.40
2019-01-19T17:17:24.476Z,7.28
2019-01-19T17:19:59.007Z,6.10
2019-01-19T17:22:33.284Z,6.97
2019-01-19T17:25:33.834Z,6.97
2019-01-19T17:28:20.457Z,6.45
2019-01-19T17:31:20.758Z,5.97
2019-01-19T17:34:04.451Z,6.53
2019-01-19T17:36:42.833Z,6.60
2019-01-19T17:39:32.564Z,6.45
2019-01-19T17:42:25.243Z,6.70
2019-01-19T17:45:15.974Z,7.22
2019-01-19T17:48:07.279Z,7.55
2019-01-19T17:50:57.400Z,7.62
2019-01-19T17:53:34.195Z,7.62
2019-01-19T17:56:05.762Z,6.67
2019-01-19T17:58:43.233Z,6.58
2019-01-19T18:01:18.057Z,6.62
2019-01-19T18:03:55.429Z,7.80
2019-01-19T18:06:32.808Z,7.45
2019-01-19T18:09:04.419Z,7.42
2019-01-19T18:11:38.881Z,8.15
2019-01-19T18:14:27.234Z,7.17
2019-01-19T18:17:04.468Z,8.83
2019-01-19T18:19:44.808Z,8.38
2019-01-19T18:22:25.146Z,6.80
2019-01-19T18:25:14.517Z,7.97
2019-01-19T18:28:15.419Z,9.73
2019-01-19T18:30:49.843Z,10.63
2019-01-19T18:33:39.641Z,11.73
2019-01-19T18:36:30.696Z,8.08
2019-01-19T18:39:11.616Z,8.10
2019-01-19T18:41:46.049Z,7.60
2019-01-19T18:44:35.881Z,7.55
2019-01-19T18:47:20.844Z,7.28
2019-01-19T18:49:55.181Z,6.53
2019-01-19T18:52:48.047Z,7.05
2019-01-19T18:55:22.349Z,7.17
2019-01-19T18:58:02.940Z,7.22
2019-01-19T19:00:55.719Z,8.18
2019-01-19T19:03:29.926Z,7.95
2019-01-19T19:06:07.433Z,7.90
2019-01-19T19:08:54.164Z,8.13
2019-01-19T19:11:32.439Z,8.40
2019-01-19T19:14:10.955Z,8.75
2019-01-19T19:16:42.679Z,8.25
2019-01-19T19:19:21.394Z,8.10
2019-01-19T19:22:17.296Z,7.12
2019-01-19T19:25:06.954Z,8.10
2019-01-19T19:28:05.086Z,7.60
2019-01-19T19:30:51.830Z,7.58
2019-01-19T19:33:25.980Z,9.88
2019-01-19T19:36:29.565Z,9.70
2019-01-19T19:39:31.000Z,9.20
2019-01-19T19:42:22.095Z,7.90
2019-01-19T19:45:02.550Z,8.25
2019-01-19T19:47:49.315Z,7.45
2019-01-19T19:50:46.588Z,7.58
2019-01-19T19:53:15.225Z,7.87
2019-01-19T19:55:42.595Z,8.55
2019-01-19T19:58:11.051Z,8.65
2019-01-19T20:00:39.808Z,9.03
2019-01-19T20:03:08.664Z,8.88
2019-01-19T20:05:37.242Z,10.03
2019-01-19T20:08:05.743Z,8.80
2019-01-19T20:10:34.224Z,9.68
2019-01-19T20:13:02.663Z,9.50
2019-01-19T20:15:31.264Z,8.65
2019-01-19T20:18:00.084Z,7.83
2019-01-19T20:20:28.551Z,7.40
2019-01-19T20:22:56.993Z,7.53
2019-01-19T20:25:25.620Z,6.78
2019-01-19T20:27:54.072Z,6.60
2019-01-19T20:30:22.889Z,6.22
2019-01-19T20:32:51.332Z,7.03
2019-01-19T20:35:19.893Z,6.55
2019-01-19T20:37:48.332Z,8.13
2019-01-19T20:40:16.770Z,7.10
2019-01-19T20:42:45.238Z,7.65
2019-01-19T20:45:14.248Z,7.15
2019-01-19T20:47:42.715Z,7.70
2019-01-19T20:50:12.401Z,7.35
2019-01-19T20:52:40.995Z,7.45
2019-01-19T20:55:10.880Z,7.45
2019-01-19T20:57:39.575Z,6.50
2019-01-19T21:00:14.364Z,8.38
2019-01-19T21:02:44.111Z,8.13
2019-01-19T21:05:12.677Z,8.03
2019-01-19T21:07:41.281Z,7.05
2019-01-19T21:10:09.961Z,7.78
2019-01-19T21:12:38.426Z,7.85
2019-01-19T21:15:09.967Z,8.15
2019-01-19T21:17:38.442Z,8.23
2019-01-19T21:20:10.165Z,8.75
2019-01-19T21:22:38.658Z,8.08
2019-01-19T21:25:09.440Z,7.67
2019-01-19T21:27:37.915Z,7.30
2019-01-19T21:30:15.515Z,6.80
2019-01-19T21:32:43.967Z,6.72
2019-01-19T21:35:12.552Z,6.53
2019-01-19T21:37:41.011Z,7.00
2019-01-19T21:40:12.076Z,6.58
2019-01-19T21:42:40.525Z,9.40
2019-01-19T21:45:12.153Z,7.30
2019-01-19T21:47:40.608Z,7.83
2019-01-19T21:50:10.911Z,7.90
2019-01-19T21:52:39.533Z,9.45
2019-01-19T21:55:09.933Z,8.78
2019-01-19T21:57:38.441Z,10.30
2019-01-19T22:00:12.628Z,9.15
2019-01-19T22:02:41.077Z,7.83
2019-01-19T22:05:09.782Z,7.28
2019-01-19T22:07:38.237Z,8.03
2019-01-19T22:10:10.107Z,7.00
2019-01-19T22:12:38.553Z,7.40
2019-01-19T22:15:15.143Z,7.62
2019-01-19T22:17:43.673Z,6.95
2019-01-19T22:20:14.663Z,6.87
2019-01-19T22:22:43.195Z,7.92
2019-01-19T22:25:11.881Z,6.72
2019-01-19T22:27:42.149Z,6.37
2019-01-19T22:30:22.353Z,6.17
2019-01-19T22:32:52.516Z,6.10
2019-01-19T22:35:23.541Z,6.37
2019-01-19T22:37:52.071Z,5.70
2019-01-19T22:40:20.960Z,7.17
2019-01-19T22:42:49.951Z,6.78
2019-01-19T22:45:18.605Z,6.60
2019-01-19T22:47:47.157Z,6.33
2019-01-19T22:50:17.163Z,7.42
2019-01-19T22:52:46.056Z,6.30
2019-01-19T22:55:14.848Z,6.17
2019-01-19T22:57:43.384Z,6.97
2019-01-19T23:00:21.086Z,7.40
2019-01-19T23:02:49.693Z,7.28
2019-01-19T23:05:18.124Z,6.90
2019-01-19T23:07:46.597Z,7.03
2019-01-19T23:10:15.102Z,7.03
2019-01-19T23:12:43.636Z,7.33
2019-01-19T23:15:12.690Z,5.65
2019-01-19T23:17:41.148Z,6.70
2019-01-19T23:20:11.230Z,6.70
2019-01-19T23:22:39.841Z,7.35
2019-01-19T23:25:09.048Z,6.87
2019-01-19T23:27:37.508Z,7.15
2019-01-19T23:30:11.615Z,6.78
2019-01-19T23:32:40.076Z,6.92
2019-01-19T23:35:08.960Z,7.60
2019-01-19T23:37:37.415Z,7.40
2019-01-19T23:40:08.932Z,7.47
2019-01-19T23:42:37.401Z,7.12
2019-01-19T23:45:08.486Z,6.85
2019-01-19T23:47:36.964Z,7.67
2019-01-19T23:50:10.038Z,7.28
2019-01-19T23:52:38.707Z,8.23
2019-01-19T23:55:07.601Z,7.78
2019-01-19T23:57:36.069Z,7.90
